sensor_id;sensor_type;location;lat;lon;timestamp;temperature;humidity
66522;SHT31;53349;53.538;8.584;2022-12-13T00:00:16;-2.08;76.67
66522;SHT31;53349;53.538;8.584;2022-12-13T00:02:45;-2.08;76.78
66522;SHT31;53349;53.538;8.584;2022-12-13T00:05:12;-2.09;76.82
66522;SHT31;53349;53.538;8.584;2022-12-13T00:07:38;-2.08;76.84
66522;SHT31;53349;53.538;8.584;2022-12-13T00:10:05;-2.00;76.85
66522;SHT31;53349;53.538;8.584;2022-12-13T00:12:30;-1.94;76.77
66522;SHT31;53349;53.538;8.584;2022-12-13T00:14:56;-1.95;76.77
66522;SHT31;53349;53.538;8.584;2022-12-13T00:17:22;-1.93;76.85
66522;SHT31;53349;53.538;8.584;2022-12-13T00:19:47;-1.93;76.95
66522;SHT31;53349;53.538;8.584;2022-12-13T00:22:14;-1.90;76.92
66522;SHT31;53349;53.538;8.584;2022-12-13T00:24:41;-1.83;76.87
66522;SHT31;53349;53.538;8.584;2022-12-13T00:27:07;-1.84;76.65
66522;SHT31;53349;53.538;8.584;2022-12-13T00:29:32;-1.86;76.68
66522;SHT31;53349;53.538;8.584;2022-12-13T00:31:58;-1.93;76.64
66522;SHT31;53349;53.538;8.584;2022-12-13T00:34:23;-1.94;76.73
66522;SHT31;53349;53.538;8.584;2022-12-13T00:36:49;-1.91;76.71
66522;SHT31;53349;53.538;8.584;2022-12-13T00:39:15;-1.86;76.66
66522;SHT31;53349;53.538;8.584;2022-12-13T00:41:41;-1.83;76.63
66522;SHT31;53349;53.538;8.584;2022-12-13T00:44:10;-1.83;76.42
66522;SHT31;53349;53.538;8.584;2022-12-13T00:46:37;-1.88;76.49
66522;SHT31;53349;53.538;8.584;2022-12-13T00:49:03;-1.87;76.56
66522;SHT31;53349;53.538;8.584;2022-12-13T00:51:31;-1.84;76.57
66522;SHT31;53349;53.538;8.584;2022-12-13T00:53:57;-1.83;76.51
66522;SHT31;53349;53.538;8.584;2022-12-13T00:56:25;-1.76;76.35
66522;SHT31;53349;53.538;8.584;2022-12-13T00:58:51;-1.80;76.23
66522;SHT31;53349;53.538;8.584;2022-12-13T01:01:19;-1.87;76.18
66522;SHT31;53349;53.538;8.584;2022-12-13T01:03:45;-1.86;76.22
66522;SHT31;53349;53.538;8.584;2022-12-13T01:06:13;-1.88;76.19
66522;SHT31;53349;53.538;8.584;2022-12-13T01:08:39;-1.94;76.21
66522;SHT31;53349;53.538;8.584;2022-12-13T01:11:06;-1.93;76.19
66522;SHT31;53349;53.538;8.584;2022-12-13T01:13:32;-1.91;76.19
66522;SHT31;53349;53.538;8.584;2022-12-13T01:15:57;-1.88;76.03
66522;SHT31;53349;53.538;8.584;2022-12-13T01:18:25;-1.87;76.08
66522;SHT31;53349;53.538;8.584;2022-12-13T01:23:23;-1.90;75.92
66522;SHT31;53349;53.538;8.584;2022-12-13T01:25:49;-1.93;75.93
66522;SHT31;53349;53.538;8.584;2022-12-13T01:28:14;-1.97;76.00
66522;SHT31;53349;53.538;8.584;2022-12-13T01:30:39;-1.93;76.15
66522;SHT31;53349;53.538;8.584;2022-12-13T01:33:05;-1.95;76.08
66522;SHT31;53349;53.538;8.584;2022-12-13T01:35:32;-1.95;76.08
66522;SHT31;53349;53.538;8.584;2022-12-13T01:37:58;-2.01;76.10
66522;SHT31;53349;53.538;8.584;2022-12-13T01:40:23;-1.94;76.07
66522;SHT31;53349;53.538;8.584;2022-12-13T01:42:50;-1.93;76.03
66522;SHT31;53349;53.538;8.584;2022-12-13T01:45:24;-1.98;76.11
66522;SHT31;53349;53.538;8.584;2022-12-13T01:47:59;-1.95;76.18
66522;SHT31;53349;53.538;8.584;2022-12-13T01:50:36;-1.98;76.15
66522;SHT31;53349;53.538;8.584;2022-12-13T01:53:05;-1.95;76.09
66522;SHT31;53349;53.538;8.584;2022-12-13T01:55:33;-1.95;76.16
66522;SHT31;53349;53.538;8.584;2022-12-13T01:58:01;-2.07;76.22
66522;SHT31;53349;53.538;8.584;2022-12-13T02:00:27;-2.08;76.36
66522;SHT31;53349;53.538;8.584;2022-12-13T02:02:55;-2.12;76.39
66522;SHT31;53349;53.538;8.584;2022-12-13T02:05:35;-2.07;76.52
66522;SHT31;53349;53.538;8.584;2022-12-13T02:08:02;-2.05;76.49
66522;SHT31;53349;53.538;8.584;2022-12-13T02:10:30;-2.05;76.53
66522;SHT31;53349;53.538;8.584;2022-12-13T02:12:55;-2.01;76.57
66522;SHT31;53349;53.538;8.584;2022-12-13T02:15:23;-1.98;76.54
66522;SHT31;53349;53.538;8.584;2022-12-13T02:20:51;-1.91;76.61
66522;SHT31;53349;53.538;8.584;2022-12-13T02:32:12;-1.68;76.43
66522;SHT31;53349;53.538;8.584;2022-12-13T02:34:50;-1.71;76.29
66522;SHT31;53349;53.538;8.584;2022-12-13T02:40:26;-1.76;76.23
66522;SHT31;53349;53.538;8.584;2022-12-13T02:43:01;-1.83;76.26
66522;SHT31;53349;53.538;8.584;2022-12-13T02:45:48;-1.83;76.33
66522;SHT31;53349;53.538;8.584;2022-12-13T02:48:18;-1.84;76.45
66522;SHT31;53349;53.538;8.584;2022-12-13T02:50:46;-1.80;76.53
66522;SHT31;53349;53.538;8.584;2022-12-13T02:53:13;-1.78;76.50
66522;SHT31;53349;53.538;8.584;2022-12-13T02:55:39;-1.76;76.57
66522;SHT31;53349;53.538;8.584;2022-12-13T02:58:04;-1.74;76.59
66522;SHT31;53349;53.538;8.584;2022-12-13T03:12:12;-1.77;77.55
66522;SHT31;53349;53.538;8.584;2022-12-13T03:15:20;-1.78;77.66
66522;SHT31;53349;53.538;8.584;2022-12-13T03:20:23;-1.78;77.63
66522;SHT31;53349;53.538;8.584;2022-12-13T03:22:52;-1.76;77.67
66522;SHT31;53349;53.538;8.584;2022-12-13T03:25:19;-1.76;77.66
66522;SHT31;53349;53.538;8.584;2022-12-13T03:27:45;-1.74;77.70
66522;SHT31;53349;53.538;8.584;2022-12-13T03:30:11;-1.77;77.74
66522;SHT31;53349;53.538;8.584;2022-12-13T03:32:37;-1.81;77.79
66522;SHT31;53349;53.538;8.584;2022-12-13T03:35:02;-1.81;77.89
66522;SHT31;53349;53.538;8.584;2022-12-13T03:37:28;-1.81;77.93
66522;SHT31;53349;53.538;8.584;2022-12-13T03:39:53;-1.78;77.95
66522;SHT31;53349;53.538;8.584;2022-12-13T03:42:19;-1.73;77.95
66522;SHT31;53349;53.538;8.584;2022-12-13T03:44:44;-1.71;78.09
66522;SHT31;53349;53.538;8.584;2022-12-13T03:47:10;-1.71;78.14
66522;SHT31;53349;53.538;8.584;2022-12-13T03:49:35;-1.71;78.42
66522;SHT31;53349;53.538;8.584;2022-12-13T03:52:00;-1.73;78.65
66522;SHT31;53349;53.538;8.584;2022-12-13T03:54:26;-1.78;79.13
66522;SHT31;53349;53.538;8.584;2022-12-13T03:56:51;-1.76;79.21
66522;SHT31;53349;53.538;8.584;2022-12-13T03:59:16;-1.78;79.43
66522;SHT31;53349;53.538;8.584;2022-12-13T04:01:42;-1.76;79.58
66522;SHT31;53349;53.538;8.584;2022-12-13T04:04:10;-1.74;79.64
66522;SHT31;53349;53.538;8.584;2022-12-13T04:06:35;-1.78;79.82
66522;SHT31;53349;53.538;8.584;2022-12-13T04:09:01;-1.73;79.82
66522;SHT31;53349;53.538;8.584;2022-12-13T04:11:26;-1.76;79.84
66522;SHT31;53349;53.538;8.584;2022-12-13T04:14:10;-1.76;80.30
66522;SHT31;53349;53.538;8.584;2022-12-13T04:16:36;-1.74;80.33
66522;SHT31;53349;53.538;8.584;2022-12-13T04:19:01;-1.67;80.33
66522;SHT31;53349;53.538;8.584;2022-12-13T04:21:27;-1.63;80.32
66522;SHT31;53349;53.538;8.584;2022-12-13T04:23:52;-1.57;80.45
66522;SHT31;53349;53.538;8.584;2022-12-13T04:26:18;-1.57;80.82
66522;SHT31;53349;53.538;8.584;2022-12-13T04:28:43;-1.59;81.25
66522;SHT31;53349;53.538;8.584;2022-12-13T04:31:08;-1.55;81.36
66522;SHT31;53349;53.538;8.584;2022-12-13T04:33:34;-1.52;81.36
66522;SHT31;53349;53.538;8.584;2022-12-13T04:35:59;-1.45;81.29
66522;SHT31;53349;53.538;8.584;2022-12-13T04:38:25;-1.45;81.28
66522;SHT31;53349;53.538;8.584;2022-12-13T04:40:50;-1.46;81.32
66522;SHT31;53349;53.538;8.584;2022-12-13T04:43:18;-1.47;81.38
66522;SHT31;53349;53.538;8.584;2022-12-13T04:45:44;-1.50;81.62
66522;SHT31;53349;53.538;8.584;2022-12-13T04:48:09;-1.49;81.67
66522;SHT31;53349;53.538;8.584;2022-12-13T04:50:35;-1.53;81.97
66522;SHT31;53349;53.538;8.584;2022-12-13T04:53:01;-1.52;82.25
66522;SHT31;53349;53.538;8.584;2022-12-13T04:55:26;-1.45;82.24
66522;SHT31;53349;53.538;8.584;2022-12-13T04:57:52;-1.46;82.42
66522;SHT31;53349;53.538;8.584;2022-12-13T05:00:17;-1.40;82.40
66522;SHT31;53349;53.538;8.584;2022-12-13T05:02:46;-1.40;82.40
66522;SHT31;53349;53.538;8.584;2022-12-13T05:05:11;-1.38;82.46
66522;SHT31;53349;53.538;8.584;2022-12-13T05:07:37;-1.43;82.69
66522;SHT31;53349;53.538;8.584;2022-12-13T05:10:03;-1.47;82.94
66522;SHT31;53349;53.538;8.584;2022-12-13T05:12:28;-1.47;83.16
66522;SHT31;53349;53.538;8.584;2022-12-13T05:14:54;-1.50;83.28
66522;SHT31;53349;53.538;8.584;2022-12-13T05:17:20;-1.55;83.37
66522;SHT31;53349;53.538;8.584;2022-12-13T05:19:45;-1.52;83.53
66522;SHT31;53349;53.538;8.584;2022-12-13T05:22:10;-1.57;83.63
66522;SHT31;53349;53.538;8.584;2022-12-13T05:24:42;-1.62;83.84
66522;SHT31;53349;53.538;8.584;2022-12-13T05:27:09;-1.64;84.00
66522;SHT31;53349;53.538;8.584;2022-12-13T05:29:35;-1.66;84.15
66522;SHT31;53349;53.538;8.584;2022-12-13T05:32:01;-1.59;84.19
66522;SHT31;53349;53.538;8.584;2022-12-13T05:34:26;-1.57;84.15
66522;SHT31;53349;53.538;8.584;2022-12-13T05:36:52;-1.53;84.15
66522;SHT31;53349;53.538;8.584;2022-12-13T05:39:17;-1.49;84.17
66522;SHT31;53349;53.538;8.584;2022-12-13T05:41:43;-1.55;84.18
66522;SHT31;53349;53.538;8.584;2022-12-13T05:44:11;-1.56;84.36
66522;SHT31;53349;53.538;8.584;2022-12-13T05:46:37;-1.50;84.48
66522;SHT31;53349;53.538;8.584;2022-12-13T05:49:03;-1.52;84.43
66522;SHT31;53349;53.538;8.584;2022-12-13T05:51:28;-1.55;84.41
66522;SHT31;53349;53.538;8.584;2022-12-13T05:53:54;-1.59;84.47
66522;SHT31;53349;53.538;8.584;2022-12-13T05:56:19;-1.59;84.55
66522;SHT31;53349;53.538;8.584;2022-12-13T05:58:45;-1.60;84.67
66522;SHT31;53349;53.538;8.584;2022-12-13T06:01:12;-1.59;84.74
66522;SHT31;53349;53.538;8.584;2022-12-13T06:03:39;-1.63;84.63
66522;SHT31;53349;53.538;8.584;2022-12-13T06:06:09;-1.66;84.72
66522;SHT31;53349;53.538;8.584;2022-12-13T06:08:36;-1.67;84.80
66522;SHT31;53349;53.538;8.584;2022-12-13T06:11:02;-1.64;84.83
66522;SHT31;53349;53.538;8.584;2022-12-13T06:13:28;-1.71;84.77
66522;SHT31;53349;53.538;8.584;2022-12-13T06:15:53;-1.73;84.83
66522;SHT31;53349;53.538;8.584;2022-12-13T06:18:19;-1.73;84.99
66522;SHT31;53349;53.538;8.584;2022-12-13T06:20:44;-1.80;85.11
66522;SHT31;53349;53.538;8.584;2022-12-13T06:23:11;-1.84;85.16
66522;SHT31;53349;53.538;8.584;2022-12-13T06:25:37;-1.86;85.25
66522;SHT31;53349;53.538;8.584;2022-12-13T06:28:02;-1.77;85.29
66522;SHT31;53349;53.538;8.584;2022-12-13T06:30:29;-1.78;85.20
66522;SHT31;53349;53.538;8.584;2022-12-13T06:32:55;-1.74;85.24
66522;SHT31;53349;53.538;8.584;2022-12-13T06:35:20;-1.77;85.11
66522;SHT31;53349;53.538;8.584;2022-12-13T06:37:50;-1.78;85.07
66522;SHT31;53349;53.538;8.584;2022-12-13T06:40:27;-1.83;84.99
66522;SHT31;53349;53.538;8.584;2022-12-13T06:42:52;-1.81;85.07
66522;SHT31;53349;53.538;8.584;2022-12-13T06:45:18;-1.80;85.06
66522;SHT31;53349;53.538;8.584;2022-12-13T06:47:44;-1.83;85.00
66522;SHT31;53349;53.538;8.584;2022-12-13T06:50:10;-1.88;84.94
66522;SHT31;53349;53.538;8.584;2022-12-13T06:52:35;-1.87;84.86
66522;SHT31;53349;53.538;8.584;2022-12-13T06:55:02;-1.91;85.01
66522;SHT31;53349;53.538;8.584;2022-12-13T06:57:27;-1.95;85.02
66522;SHT31;53349;53.538;8.584;2022-12-13T06:59:53;-1.97;85.11
66522;SHT31;53349;53.538;8.584;2022-12-13T07:02:18;-1.95;85.08
66522;SHT31;53349;53.538;8.584;2022-12-13T07:04:43;-2.01;85.17
66522;SHT31;53349;53.538;8.584;2022-12-13T07:07:09;-1.97;85.24
66522;SHT31;53349;53.538;8.584;2022-12-13T07:09:35;-1.95;85.27
66522;SHT31;53349;53.538;8.584;2022-12-13T07:12:00;-1.94;85.23
66522;SHT31;53349;53.538;8.584;2022-12-13T07:14:26;-2.04;85.21
66522;SHT31;53349;53.538;8.584;2022-12-13T07:16:51;-2.01;85.24
66522;SHT31;53349;53.538;8.584;2022-12-13T07:19:16;-1.94;85.34
66522;SHT31;53349;53.538;8.584;2022-12-13T07:21:42;-1.91;85.14
66522;SHT31;53349;53.538;8.584;2022-12-13T07:24:07;-1.90;85.01
66522;SHT31;53349;53.538;8.584;2022-12-13T07:26:33;-1.94;84.86
66522;SHT31;53349;53.538;8.584;2022-12-13T07:28:58;-1.95;84.80
66522;SHT31;53349;53.538;8.584;2022-12-13T07:31:24;-2.02;84.74
66522;SHT31;53349;53.538;8.584;2022-12-13T07:33:50;-2.11;84.59
66522;SHT31;53349;53.538;8.584;2022-12-13T07:36:18;-2.17;84.64
66522;SHT31;53349;53.538;8.584;2022-12-13T07:38:55;-2.18;84.70
66522;SHT31;53349;53.538;8.584;2022-12-13T07:41:23;-2.31;84.72
66522;SHT31;53349;53.538;8.584;2022-12-13T07:43:52;-2.37;84.95
66522;SHT31;53349;53.538;8.584;2022-12-13T07:46:18;-2.42;84.95
66522;SHT31;53349;53.538;8.584;2022-12-13T07:48:43;-2.46;85.18
66522;SHT31;53349;53.538;8.584;2022-12-13T07:51:11;-2.52;85.31
66522;SHT31;53349;53.538;8.584;2022-12-13T07:53:37;-2.49;85.31
66522;SHT31;53349;53.538;8.584;2022-12-13T07:56:04;-2.46;85.35
66522;SHT31;53349;53.538;8.584;2022-12-13T07:58:30;-2.45;85.40
66522;SHT31;53349;53.538;8.584;2022-12-13T08:01:03;-2.44;85.55
66522;SHT31;53349;53.538;8.584;2022-12-13T08:03:30;-2.29;85.70
66522;SHT31;53349;53.538;8.584;2022-12-13T08:06:10;-2.24;85.56
66522;SHT31;53349;53.538;8.584;2022-12-13T08:08:37;-2.24;85.37
66522;SHT31;53349;53.538;8.584;2022-12-13T08:11:04;-2.24;85.27
66522;SHT31;53349;53.538;8.584;2022-12-13T08:13:29;-2.22;85.21
66522;SHT31;53349;53.538;8.584;2022-12-13T08:16:07;-2.24;85.06
66522;SHT31;53349;53.538;8.584;2022-12-13T08:18:33;-2.17;85.24
66522;SHT31;53349;53.538;8.584;2022-12-13T08:21:04;-2.17;85.01
66522;SHT31;53349;53.538;8.584;2022-12-13T08:23:31;-2.24;84.76
66522;SHT31;53349;53.538;8.584;2022-12-13T08:26:00;-2.22;84.62
66522;SHT31;53349;53.538;8.584;2022-12-13T08:28:26;-2.24;84.63
66522;SHT31;53349;53.538;8.584;2022-12-13T08:30:52;-2.24;84.62
66522;SHT31;53349;53.538;8.584;2022-12-13T08:33:18;-2.31;84.52
66522;SHT31;53349;53.538;8.584;2022-12-13T08:35:44;-2.29;84.65
66522;SHT31;53349;53.538;8.584;2022-12-13T08:38:10;-2.24;84.66
66522;SHT31;53349;53.538;8.584;2022-12-13T08:40:36;-2.21;84.59
66522;SHT31;53349;53.538;8.584;2022-12-13T08:43:01;-2.22;84.33
66522;SHT31;53349;53.538;8.584;2022-12-13T08:45:27;-2.24;84.30
66522;SHT31;53349;53.538;8.584;2022-12-13T08:47:56;-2.22;84.28
66522;SHT31;53349;53.538;8.584;2022-12-13T08:50:22;-2.21;84.28
66522;SHT31;53349;53.538;8.584;2022-12-13T08:52:50;-2.18;84.30
66522;SHT31;53349;53.538;8.584;2022-12-13T08:55:15;-2.14;84.32
66522;SHT31;53349;53.538;8.584;2022-12-13T08:57:42;-2.12;84.29
66522;SHT31;53349;53.538;8.584;2022-12-13T09:00:12;-2.08;84.25
66522;SHT31;53349;53.538;8.584;2022-12-13T09:02:38;-2.11;84.10
66522;SHT31;53349;53.538;8.584;2022-12-13T09:05:05;-2.14;83.88
66522;SHT31;53349;53.538;8.584;2022-12-13T09:07:31;-2.17;83.99
66522;SHT31;53349;53.538;8.584;2022-12-13T09:09:56;-2.12;83.96
66522;SHT31;53349;53.538;8.584;2022-12-13T09:12:22;-2.15;83.95
66522;SHT31;53349;53.538;8.584;2022-12-13T09:14:47;-2.11;84.14
66522;SHT31;53349;53.538;8.584;2022-12-13T09:17:13;-2.08;84.18
66522;SHT31;53349;53.538;8.584;2022-12-13T09:19:39;-2.08;84.18
66522;SHT31;53349;53.538;8.584;2022-12-13T09:22:06;-2.02;84.30
66522;SHT31;53349;53.538;8.584;2022-12-13T09:24:32;-2.00;84.30
66522;SHT31;53349;53.538;8.584;2022-12-13T09:26:57;-1.90;84.45
66522;SHT31;53349;53.538;8.584;2022-12-13T09:29:22;-1.87;84.38
66522;SHT31;53349;53.538;8.584;2022-12-13T09:31:48;-1.77;84.41
66522;SHT31;53349;53.538;8.584;2022-12-13T09:34:13;-1.77;84.23
66522;SHT31;53349;53.538;8.584;2022-12-13T09:36:38;-1.77;84.10
66522;SHT31;53349;53.538;8.584;2022-12-13T09:39:04;-1.74;84.06
66522;SHT31;53349;53.538;8.584;2022-12-13T09:41:34;-1.73;84.02
66522;SHT31;53349;53.538;8.584;2022-12-13T09:44:22;-1.64;83.91
66522;SHT31;53349;53.538;8.584;2022-12-13T09:46:49;-1.53;83.91
66522;SHT31;53349;53.538;8.584;2022-12-13T09:49:25;-1.55;83.49
66522;SHT31;53349;53.538;8.584;2022-12-13T09:51:53;-1.50;83.31
66522;SHT31;53349;53.538;8.584;2022-12-13T09:54:23;-1.57;82.80
66522;SHT31;53349;53.538;8.584;2022-12-13T09:56:50;-1.59;82.73
66522;SHT31;53349;53.538;8.584;2022-12-13T09:59:28;-1.62;82.61
66522;SHT31;53349;53.538;8.584;2022-12-13T10:01:55;-1.60;82.68
66522;SHT31;53349;53.538;8.584;2022-12-13T10:04:21;-1.63;82.49
66522;SHT31;53349;53.538;8.584;2022-12-13T10:07:06;-1.64;82.52
66522;SHT31;53349;53.538;8.584;2022-12-13T10:09:35;-1.62;82.50
66522;SHT31;53349;53.538;8.584;2022-12-13T10:12:01;-1.53;82.49
66522;SHT31;53349;53.538;8.584;2022-12-13T10:14:31;-1.53;82.43
66522;SHT31;53349;53.538;8.584;2022-12-13T10:17:02;-1.56;82.26
66522;SHT31;53349;53.538;8.584;2022-12-13T10:19:39;-1.60;82.31
66522;SHT31;53349;53.538;8.584;2022-12-13T10:22:16;-1.62;82.17
66522;SHT31;53349;53.538;8.584;2022-12-13T10:24:57;-1.57;82.60
66522;SHT31;53349;53.538;8.584;2022-12-13T10:27:38;-1.62;82.10
66522;SHT31;53349;53.538;8.584;2022-12-13T10:30:13;-1.62;82.05
66522;SHT31;53349;53.538;8.584;2022-12-13T10:32:51;-1.62;82.21
66522;SHT31;53349;53.538;8.584;2022-12-13T10:35:25;-1.67;82.21
66522;SHT31;53349;53.538;8.584;2022-12-13T10:37:52;-1.62;82.17
66522;SHT31;53349;53.538;8.584;2022-12-13T10:40:38;-1.60;82.22
66522;SHT31;53349;53.538;8.584;2022-12-13T10:43:22;-1.57;82.17
66522;SHT31;53349;53.538;8.584;2022-12-13T10:51:13;-1.38;82.73
66522;SHT31;53349;53.538;8.584;2022-12-13T10:56:05;-1.34;83.50
66522;SHT31;53349;53.538;8.584;2022-12-13T10:58:41;-1.16;84.14
66522;SHT31;53349;53.538;8.584;2022-12-13T11:01:12;-1.11;83.84
66522;SHT31;53349;53.538;8.584;2022-12-13T11:04:00;-1.19;83.03
66522;SHT31;53349;53.538;8.584;2022-12-13T11:06:27;-1.39;82.19
66522;SHT31;53349;53.538;8.584;2022-12-13T11:08:53;-1.40;82.20
66522;SHT31;53349;53.538;8.584;2022-12-13T11:11:28;-1.52;81.99
66522;SHT31;53349;53.538;8.584;2022-12-13T11:13:56;-1.59;82.27
66522;SHT31;53349;53.538;8.584;2022-12-13T11:16:36;-1.57;82.39
66522;SHT31;53349;53.538;8.584;2022-12-13T11:22:01;-1.52;82.93
66522;SHT31;53349;53.538;8.584;2022-12-13T11:24:33;-1.49;83.08
66522;SHT31;53349;53.538;8.584;2022-12-13T11:41:11;-0.85;83.96
66522;SHT31;53349;53.538;8.584;2022-12-13T11:43:39;-0.92;82.73
66522;SHT31;53349;53.538;8.584;2022-12-13T11:46:13;-0.92;82.40
66522;SHT31;53349;53.538;8.584;2022-12-13T11:48:45;-0.91;81.89
66522;SHT31;53349;53.538;8.584;2022-12-13T11:51:16;-1.06;81.11
66522;SHT31;53349;53.538;8.584;2022-12-13T11:53:51;-1.11;81.22
66522;SHT31;53349;53.538;8.584;2022-12-13T11:56:25;-1.08;81.40
66522;SHT31;53349;53.538;8.584;2022-12-13T12:04:25;-0.97;81.05
66522;SHT31;53349;53.538;8.584;2022-12-13T12:07:16;-0.99;81.07
66522;SHT31;53349;53.538;8.584;2022-12-13T12:09:50;-1.01;80.97
66522;SHT31;53349;53.538;8.584;2022-12-13T12:12:35;-1.05;80.91
66522;SHT31;53349;53.538;8.584;2022-12-13T12:15:16;-1.06;80.65
66522;SHT31;53349;53.538;8.584;2022-12-13T12:17:43;-1.09;80.97
66522;SHT31;53349;53.538;8.584;2022-12-13T12:20:14;-1.11;80.82
66522;SHT31;53349;53.538;8.584;2022-12-13T12:23:05;-1.20;80.91
66522;SHT31;53349;53.538;8.584;2022-12-13T12:25:46;-1.15;81.22
66522;SHT31;53349;53.538;8.584;2022-12-13T12:31:24;-0.97;81.02
66522;SHT31;53349;53.538;8.584;2022-12-13T12:34:08;-0.89;80.76
66522;SHT31;53349;53.538;8.584;2022-12-13T12:36:41;-0.87;80.60
66522;SHT31;53349;53.538;8.584;2022-12-13T12:39:20;-0.85;80.57
66522;SHT31;53349;53.538;8.584;2022-12-13T12:42:03;-0.97;80.30
66522;SHT31;53349;53.538;8.584;2022-12-13T12:47:44;-0.87;80.19
66522;SHT31;53349;53.538;8.584;2022-12-13T12:53:01;-1.08;80.06
66522;SHT31;53349;53.538;8.584;2022-12-13T12:55:43;-1.05;80.52
66522;SHT31;53349;53.538;8.584;2022-12-13T13:04:03;-1.11;81.01
66522;SHT31;53349;53.538;8.584;2022-12-13T13:06:38;-1.18;80.52
66522;SHT31;53349;53.538;8.584;2022-12-13T13:09:06;-1.15;81.26
66522;SHT31;53349;53.538;8.584;2022-12-13T13:11:37;-1.24;81.39
66522;SHT31;53349;53.538;8.584;2022-12-13T13:14:25;-1.24;81.16
66522;SHT31;53349;53.538;8.584;2022-12-13T13:16:51;-1.28;81.10
66522;SHT31;53349;53.538;8.584;2022-12-13T13:26:36;-1.43;81.15
66522;SHT31;53349;53.538;8.584;2022-12-13T13:34:39;-1.47;81.10
66522;SHT31;53349;53.538;8.584;2022-12-13T13:42:27;-1.59;81.57
66522;SHT31;53349;53.538;8.584;2022-12-13T13:45:18;-1.55;81.52
66522;SHT31;53349;53.538;8.584;2022-12-13T13:47:53;-1.63;81.57
66522;SHT31;53349;53.538;8.584;2022-12-13T13:59:16;-1.62;81.87
66522;SHT31;53349;53.538;8.584;2022-12-13T14:31:22;-1.71;81.79
66522;SHT31;53349;53.538;8.584;2022-12-13T14:33:48;-1.74;81.98
66522;SHT31;53349;53.538;8.584;2022-12-13T14:36:17;-1.86;82.04
66522;SHT31;53349;53.538;8.584;2022-12-13T14:38:59;-1.93;82.40
66522;SHT31;53349;53.538;8.584;2022-12-13T14:41:25;-1.86;82.42
66522;SHT31;53349;53.538;8.584;2022-12-13T14:43:50;-1.83;82.42
66522;SHT31;53349;53.538;8.584;2022-12-13T14:46:19;-1.88;82.52
66522;SHT31;53349;53.538;8.584;2022-12-13T14:48:48;-1.83;82.62
66522;SHT31;53349;53.538;8.584;2022-12-13T14:51:31;-1.80;82.63
66522;SHT31;53349;53.538;8.584;2022-12-13T14:53:59;-1.81;82.51
66522;SHT31;53349;53.538;8.584;2022-12-13T14:56:27;-1.86;82.62
66522;SHT31;53349;53.538;8.584;2022-12-13T14:58:58;-1.97;82.85
66522;SHT31;53349;53.538;8.584;2022-12-13T15:01:39;-2.07;83.09
66522;SHT31;53349;53.538;8.584;2022-12-13T15:04:40;-2.01;83.12
66522;SHT31;53349;53.538;8.584;2022-12-13T15:07:11;-2.02;83.13
66522;SHT31;53349;53.538;8.584;2022-12-13T15:09:41;-1.97;83.24
66522;SHT31;53349;53.538;8.584;2022-12-13T15:12:14;-1.97;83.32
66522;SHT31;53349;53.538;8.584;2022-12-13T15:14:46;-2.11;83.22
66522;SHT31;53349;53.538;8.584;2022-12-13T15:19:56;-2.21;83.51
66522;SHT31;53349;53.538;8.584;2022-12-13T15:22:22;-2.21;83.69
66522;SHT31;53349;53.538;8.584;2022-12-13T15:24:48;-2.19;83.86
66522;SHT31;53349;53.538;8.584;2022-12-13T15:27:15;-2.11;83.88
66522;SHT31;53349;53.538;8.584;2022-12-13T15:29:41;-2.22;83.57
66522;SHT31;53349;53.538;8.584;2022-12-13T15:32:13;-2.32;83.61
66522;SHT31;53349;53.538;8.584;2022-12-13T15:34:41;-2.29;84.24
66522;SHT31;53349;53.538;8.584;2022-12-13T15:39:41;-2.18;84.29
66522;SHT31;53349;53.538;8.584;2022-12-13T15:42:26;-2.31;84.22
66522;SHT31;53349;53.538;8.584;2022-12-13T15:45:00;-2.29;84.27
66522;SHT31;53349;53.538;8.584;2022-12-13T15:47:27;-2.39;84.29
66522;SHT31;53349;53.538;8.584;2022-12-13T15:50:00;-2.34;84.47
66522;SHT31;53349;53.538;8.584;2022-12-13T15:52:31;-2.34;84.56
66522;SHT31;53349;53.538;8.584;2022-12-13T15:57:28;-2.39;84.53
66522;SHT31;53349;53.538;8.584;2022-12-13T16:00:23;-2.35;84.68
66522;SHT31;53349;53.538;8.584;2022-12-13T16:03:14;-2.41;84.60
66522;SHT31;53349;53.538;8.584;2022-12-13T16:05:50;-2.37;84.65
66522;SHT31;53349;53.538;8.584;2022-12-13T16:08:26;-2.38;84.81
66522;SHT31;53349;53.538;8.584;2022-12-13T16:10:53;-2.37;84.82
66522;SHT31;53349;53.538;8.584;2022-12-13T16:13:25;-2.32;84.68
66522;SHT31;53349;53.538;8.584;2022-12-13T16:15:54;-2.37;84.86
66522;SHT31;53349;53.538;8.584;2022-12-13T16:18:31;-2.35;84.94
66522;SHT31;53349;53.538;8.584;2022-12-13T16:20:56;-2.27;84.96
66522;SHT31;53349;53.538;8.584;2022-12-13T16:23:22;-2.22;84.90
66522;SHT31;53349;53.538;8.584;2022-12-13T16:25:48;-2.28;84.73
66522;SHT31;53349;53.538;8.584;2022-12-13T16:28:14;-2.41;84.77
66522;SHT31;53349;53.538;8.584;2022-12-13T16:30:57;-2.42;84.71
66522;SHT31;53349;53.538;8.584;2022-12-13T16:33:26;-2.39;84.84
66522;SHT31;53349;53.538;8.584;2022-12-13T16:35:53;-2.41;84.68
66522;SHT31;53349;53.538;8.584;2022-12-13T16:38:19;-2.41;84.65
66522;SHT31;53349;53.538;8.584;2022-12-13T16:40:46;-2.46;84.54
66522;SHT31;53349;53.538;8.584;2022-12-13T16:43:19;-2.41;84.57
66522;SHT31;53349;53.538;8.584;2022-12-13T16:45:49;-2.46;84.59
66522;SHT31;53349;53.538;8.584;2022-12-13T16:48:16;-2.45;84.70
66522;SHT31;53349;53.538;8.584;2022-12-13T16:50:44;-2.38;84.77
66522;SHT31;53349;53.538;8.584;2022-12-13T16:53:11;-2.44;84.50
66522;SHT31;53349;53.538;8.584;2022-12-13T16:55:37;-2.39;84.61
66522;SHT31;53349;53.538;8.584;2022-12-13T16:58:14;-2.46;84.57
66522;SHT31;53349;53.538;8.584;2022-12-13T17:00:42;-2.46;84.75
66522;SHT31;53349;53.538;8.584;2022-12-13T17:03:11;-2.53;84.98
66522;SHT31;53349;53.538;8.584;2022-12-13T17:05:39;-2.58;85.01
66522;SHT31;53349;53.538;8.584;2022-12-13T17:08:05;-2.53;85.00
66522;SHT31;53349;53.538;8.584;2022-12-13T17:10:30;-2.49;84.98
66522;SHT31;53349;53.538;8.584;2022-12-13T17:12:56;-2.46;84.94
66522;SHT31;53349;53.538;8.584;2022-12-13T17:15:21;-2.49;84.97
66522;SHT31;53349;53.538;8.584;2022-12-13T17:17:47;-2.56;84.99
66522;SHT31;53349;53.538;8.584;2022-12-13T17:20:15;-2.56;85.06
66522;SHT31;53349;53.538;8.584;2022-12-13T17:22:41;-2.53;85.08
66522;SHT31;53349;53.538;8.584;2022-12-13T17:25:08;-2.49;85.07
66522;SHT31;53349;53.538;8.584;2022-12-13T17:27:34;-2.55;85.01
66522;SHT31;53349;53.538;8.584;2022-12-13T17:30:00;-2.48;85.15
66522;SHT31;53349;53.538;8.584;2022-12-13T17:32:26;-2.52;85.16
66522;SHT31;53349;53.538;8.584;2022-12-13T17:34:52;-2.48;85.35
66522;SHT31;53349;53.538;8.584;2022-12-13T17:37:18;-2.42;85.44
66522;SHT31;53349;53.538;8.584;2022-12-13T17:39:43;-2.41;85.40
66522;SHT31;53349;53.538;8.584;2022-12-13T17:42:08;-2.39;85.38
66522;SHT31;53349;53.538;8.584;2022-12-13T17:44:34;-2.41;85.28
66522;SHT31;53349;53.538;8.584;2022-12-13T17:47:00;-2.38;85.30
66522;SHT31;53349;53.538;8.584;2022-12-13T17:49:25;-2.42;85.35
66522;SHT31;53349;53.538;8.584;2022-12-13T17:51:51;-2.53;85.50
66522;SHT31;53349;53.538;8.584;2022-12-13T17:54:18;-2.55;85.61
66522;SHT31;53349;53.538;8.584;2022-12-13T17:56:44;-2.58;85.72
66522;SHT31;53349;53.538;8.584;2022-12-13T17:59:11;-2.52;85.83
66522;SHT31;53349;53.538;8.584;2022-12-13T18:01:37;-2.53;85.89